Time;durP1;ratioP1;P1;durP2;ratioP2;P2;SDS_P1;SDS_P2;PMS_P1;PMS_P2;Temp;Humidity;BMP_temperature;BMP_pressure;BME280_temperature;BME280_humidity;BME280_pressure;Samples;Min_cycle;Max_cycle;Signal;HPM_P1;HPM_P2
2022/06/26 00:01:30;;;;;;;13.32;10.73;;;18.40;99.90;;;;;;5011525;28;20520;-68
2022/06/26 00:03:56;;;;;;;13.00;10.40;;;18.40;99.90;;;;;;5005877;28;20133;-68
2022/06/26 00:06:22;;;;;;;13.52;10.52;;;18.40;99.90;;;;;;5006963;28;20164;-67
2022/06/26 00:08:47;;;;;;;15.18;11.57;;;18.40;99.90;;;;;;5007130;28;20496;-67
2022/06/26 00:11:13;;;;;;;14.18;11.50;;;18.40;99.90;;;;;;5005701;28;20042;-68
2022/06/26 00:13:39;;;;;;;13.68;11.38;;;18.40;99.90;;;;;;5004893;28;20385;-68
2022/06/26 00:16:05;;;;;;;13.52;12.10;;;18.40;99.90;;;;;;5006673;28;20053;-67
2022/06/26 00:18:31;;;;;;;13.60;11.88;;;18.40;99.90;;;;;;5008850;28;20045;-68
2022/06/26 00:20:56;;;;;;;14.27;11.30;;;18.40;99.90;;;;;;5023130;28;20050;-67
2022/06/26 00:23:22;;;;;;;13.23;11.80;;;18.40;99.90;;;;;;5009924;28;20050;-67
2022/06/26 00:25:48;;;;;;;18.13;12.43;;;18.40;99.90;;;;;;5004613;28;20052;-67
2022/06/26 00:28:13;;;;;;;12.45;11.00;;;18.30;99.90;;;;;;5011401;28;20046;-67
2022/06/26 00:30:39;;;;;;;15.90;12.00;;;18.40;99.90;;;;;;5011066;28;20054;-67
2022/06/26 00:33:05;;;;;;;14.52;11.25;;;18.40;99.90;;;;;;5011176;28;20069;-67
2022/06/26 00:35:31;;;;;;;17.45;12.75;;;18.30;99.90;;;;;;5011201;28;20042;-67
2022/06/26 00:37:56;;;;;;;14.02;11.63;;;18.30;99.90;;;;;;5010394;28;20046;-67
2022/06/26 00:40:22;;;;;;;16.23;12.07;;;18.30;99.90;;;;;;5011195;28;20426;-67
2022/06/26 00:42:48;;;;;;;15.43;12.98;;;18.30;99.90;;;;;;5011709;28;20065;-68
2022/06/26 00:45:14;;;;;;;18.42;12.18;;;18.30;99.90;;;;;;5009745;28;20037;-67
2022/06/26 00:47:40;;;;;;;15.18;12.93;;;18.30;99.90;;;;;;5011585;28;20518;-67
2022/06/26 00:50:07;;;;;;;17.80;14.10;;;18.30;99.90;;;;;;5008634;28;20045;-68
2022/06/26 00:52:34;;;;;;;18.45;14.88;;;18.30;99.90;;;;;;5011288;28;20053;-67
2022/06/26 00:55:00;;;;;;;16.98;13.50;;;18.20;99.90;;;;;;4992551;28;20046;-67
2022/06/26 00:57:26;;;;;;;17.67;14.18;;;18.20;99.90;;;;;;5007249;28;20527;-67
2022/06/26 00:59:52;;;;;;;20.00;16.38;;;18.20;99.90;;;;;;5014994;28;20042;-67
2022/06/26 01:02:17;;;;;;;15.77;14.02;;;18.20;99.90;;;;;;5010932;28;20069;-67
2022/06/26 01:04:43;;;;;;;19.45;13.82;;;18.20;99.90;;;;;;5010270;28;20050;-67
2022/06/26 01:07:10;;;;;;;17.40;14.07;;;18.20;99.90;;;;;;5011559;28;20539;-67
2022/06/26 01:09:36;;;;;;;21.33;15.05;;;18.10;99.90;;;;;;5012361;28;20519;-68
2022/06/26 01:12:01;;;;;;;21.08;13.55;;;18.10;99.90;;;;;;5028292;28;20133;-67
2022/06/26 01:14:30;;;;;;;20.67;15.05;;;18.10;99.90;;;;;;5030193;28;20073;-67
2022/06/26 01:16:58;;;;;;;17.48;14.25;;;18.10;99.90;;;;;;5029686;28;20535;-67
2022/06/26 01:19:24;;;;;;;20.90;18.58;;;18.20;99.90;;;;;;5011705;28;20041;-67
2022/06/26 01:21:50;;;;;;;21.15;17.35;;;18.20;99.90;;;;;;5014436;28;20046;-67
2022/06/26 01:24:15;;;;;;;21.50;16.70;;;18.20;99.90;;;;;;5014034;28;20429;-67
2022/06/26 01:26:41;;;;;;;23.73;17.48;;;18.20;99.90;;;;;;5014122;28;20048;-68
2022/06/26 01:29:07;;;;;;;23.67;17.77;;;18.30;99.90;;;;;;5033440;28;20034;-68
2022/06/26 01:31:34;;;;;;;21.73;16.92;;;18.30;99.90;;;;;;5013890;28;20038;-67
2022/06/26 01:34:08;;;;;;;18.70;16.65;;;18.40;99.90;;;;;;5011878;28;20112;-68
2022/06/26 01:36:35;;;;;;;22.85;16.40;;;18.40;99.90;;;;;;5013546;28;20053;-68
2022/06/26 01:39:00;;;;;;;26.80;16.75;;;18.50;99.90;;;;;;5013148;28;20496;-67
2022/06/26 01:41:26;;;;;;;21.08;15.45;;;18.50;99.90;;;;;;5011508;28;20077;-67
2022/06/26 01:43:52;;;;;;;19.10;15.90;;;18.50;99.90;;;;;;5017905;28;20071;-67
2022/06/26 01:46:19;;;;;;;20.23;15.43;;;18.50;99.90;;;;;;5021959;28;20034;-67
2022/06/26 01:48:46;;;;;;;22.08;15.55;;;18.50;99.90;;;;;;5010389;28;20048;-68
2022/06/26 01:51:13;;;;;;;17.90;14.77;;;18.40;99.90;;;;;;5010707;28;20551;-68
2022/06/26 01:53:38;;;;;;;19.92;14.10;;;18.40;99.90;;;;;;5012761;28;20054;-68
2022/06/26 01:56:05;;;;;;;26.38;15.38;;;18.40;99.90;;;;;;5012503;28;20111;-68
2022/06/26 01:58:32;;;;;;;17.97;13.80;;;18.40;99.90;;;;;;5012820;28;20042;-68
2022/06/26 02:00:58;;;;;;;21.23;14.90;;;18.40;99.90;;;;;;5012804;28;20220;-68
2022/06/26 02:03:25;;;;;;;18.60;14.10;;;18.40;99.90;;;;;;5011157;28;20309;-68
2022/06/26 02:05:51;;;;;;;17.88;12.70;;;18.40;99.90;;;;;;5027672;28;20057;-68
2022/06/26 02:08:17;;;;;;;15.05;11.13;;;18.40;99.90;;;;;;5007094;28;20037;-69
2022/06/26 02:13:37;;;;;;;13.57;10.95;;;18.40;99.90;;;;;;5011183;28;20080;-68
2022/06/26 02:16:15;;;;;;;13.93;10.45;;;18.30;99.90;;;;;;5023343;28;20046;-68
2022/06/26 02:18:43;;;;;;;13.65;10.43;;;18.30;99.90;;;;;;5010505;28;20038;-68
2022/06/26 02:21:12;;;;;;;11.55;9.05;;;18.30;99.90;;;;;;5009588;28;20064;-67
2022/06/26 02:23:39;;;;;;;13.40;8.77;;;18.30;99.90;;;;;;5011119;28;20054;-68
2022/06/26 02:26:09;;;;;;;18.13;9.43;;;18.30;99.90;;;;;;5014229;28;20385;-69
2022/06/26 02:28:36;;;;;;;12.07;7.65;;;18.40;99.90;;;;;;5002709;28;20058;-68
2022/06/26 02:31:01;;;;;;;14.45;7.90;;;18.30;99.90;;;;;;5011959;28;20095;-67
2022/06/26 02:33:28;;;;;;;16.95;10.27;;;18.30;99.90;;;;;;5011862;28;20050;-68
2022/06/26 02:35:55;;;;;;;19.70;10.40;;;18.30;99.90;;;;;;5015298;28;20042;-67
2022/06/26 02:38:22;;;;;;;16.60;11.35;;;18.20;99.90;;;;;;5016574;28;20049;-68
2022/06/26 02:40:48;;;;;;;25.08;11.80;;;18.20;99.90;;;;;;5010794;28;20374;-67
2022/06/26 02:43:14;;;;;;;19.77;11.45;;;18.20;99.90;;;;;;4995251;28;20129;-69
2022/06/26 02:45:41;;;;;;;26.40;13.43;;;18.10;99.90;;;;;;5011470;28;20049;-68
2022/06/26 02:48:07;;;;;;;20.70;11.82;;;18.10;99.90;;;;;;5013016;28;20046;-69
2022/06/26 02:50:33;;;;;;;16.55;10.80;;;18.00;99.90;;;;;;5011393;28;20053;-69
2022/06/26 02:52:59;;;;;;;19.38;10.88;;;17.90;99.90;;;;;;5011054;28;20487;-69
2022/06/26 02:55:24;;;;;;;19.35;9.95;;;17.90;99.90;;;;;;5012546;28;20041;-70
2022/06/26 02:57:50;;;;;;;13.95;9.82;;;17.80;99.90;;;;;;5013200;28;20049;-68
2022/06/26 03:00:16;;;;;;;19.92;9.63;;;17.80;99.90;;;;;;5011353;28;20049;-70
2022/06/26 03:02:42;;;;;;;15.68;8.68;;;17.70;99.90;;;;;;5013358;28;20088;-69
2022/06/26 03:05:09;;;;;;;10.82;8.27;;;17.70;99.90;;;;;;5012665;28;20061;-69
2022/06/26 03:07:35;;;;;;;12.63;7.57;;;17.70;99.90;;;;;;5010585;28;20397;-69
2022/06/26 03:10:00;;;;;;;13.20;6.75;;;17.60;99.90;;;;;;5013232;28;20054;-69
2022/06/26 03:12:27;;;;;;;14.15;6.45;;;17.60;99.90;;;;;;4994790;28;20038;-69
2022/06/26 03:14:53;;;;;;;10.50;6.97;;;17.50;99.90;;;;;;5011430;28;20038;-69
2022/06/26 03:17:19;;;;;;;10.30;7.43;;;17.50;99.90;;;;;;5012071;28;20034;-70
2022/06/26 03:19:44;;;;;;;10.15;7.25;;;17.50;99.90;;;;;;4994489;28;20137;-69
2022/06/26 03:22:10;;;;;;;10.45;6.78;;;17.50;99.90;;;;;;4985625;28;20054;-69
2022/06/26 03:24:36;;;;;;;13.18;7.63;;;17.40;99.90;;;;;;5005493;28;20041;-69
2022/06/26 03:27:02;;;;;;;13.45;6.90;;;17.40;99.90;;;;;;5016190;28;20125;-69
2022/06/26 03:29:28;;;;;;;10.10;7.40;;;17.40;99.90;;;;;;4993284;28;20046;-69
2022/06/26 03:31:55;;;;;;;12.02;7.18;;;17.40;99.90;;;;;;5013442;28;20069;-69
2022/06/26 03:34:21;;;;;;;9.77;7.30;;;17.40;99.90;;;;;;5012277;28;20060;-69
2022/06/26 03:36:47;;;;;;;12.00;7.90;;;17.30;99.90;;;;;;5011276;28;20038;-69
2022/06/26 03:39:12;;;;;;;11.00;7.45;;;17.40;99.90;;;;;;5013118;28;20045;-69
2022/06/26 03:41:38;;;;;;;15.85;7.93;;;17.30;99.90;;;;;;5026770;28;20846;-69
2022/06/26 03:44:06;;;;;;;9.90;7.28;;;17.30;99.90;;;;;;5010902;28;20050;-69
2022/06/26 03:46:32;;;;;;;11.75;6.72;;;17.30;99.90;;;;;;5012098;28;20144;-70
2022/06/26 03:48:58;;;;;;;15.32;6.88;;;17.30;99.90;;;;;;5011496;28;20065;-69
2022/06/26 03:51:24;;;;;;;11.00;6.93;;;17.30;99.90;;;;;;5012299;28;20549;-69
2022/06/26 03:53:50;;;;;;;7.47;5.93;;;17.40;99.90;;;;;;5010370;28;20038;-69
2022/06/26 03:56:16;;;;;;;8.45;5.55;;;17.30;99.90;;;;;;5012528;28;20038;-69
2022/06/26 03:58:41;;;;;;;7.60;5.72;;;17.30;99.90;;;;;;5013548;28;20050;-70
2022/06/26 04:01:07;;;;;;;9.30;5.72;;;17.30;99.90;;;;;;5013914;28;20570;-69
2022/06/26 04:03:32;;;;;;;9.05;6.53;;;17.30;99.90;;;;;;5014688;28;20463;-69
2022/06/26 04:05:59;;;;;;;9.80;5.55;;;17.30;99.90;;;;;;5015335;28;20046;-69
2022/06/26 04:08:24;;;;;;;7.75;5.40;;;17.30;99.90;;;;;;5014965;28;20120;-69
2022/06/26 04:10:50;;;;;;;6.20;5.22;;;17.30;99.90;;;;;;5016256;28;20045;-68
2022/06/26 04:13:16;;;;;;;9.82;5.30;;;17.20;99.90;;;;;;5003898;28;20070;-70
2022/06/26 04:15:41;;;;;;;6.70;5.13;;;17.20;99.90;;;;;;5007371;28;20172;-69
2022/06/26 04:18:08;;;;;;;11.35;6.80;;;17.20;99.90;;;;;;5013985;28;20033;-69
2022/06/26 04:20:34;;;;;;;9.85;5.40;;;17.20;99.90;;;;;;5013612;28;20099;-69
2022/06/26 04:23:05;;;;;;;8.07;5.38;;;17.20;99.90;;;;;;5014291;28;20119;-68
2022/06/26 04:25:32;;;;;;;7.28;5.60;;;17.20;99.90;;;;;;5013391;28;20638;-70
2022/06/26 04:27:58;;;;;;;7.60;4.88;;;17.30;99.90;;;;;;5013641;28;20377;-69
2022/06/26 04:30:25;;;;;;;6.78;4.88;;;17.30;99.90;;;;;;5013829;28;20053;-70
2022/06/26 04:32:50;;;;;;;6.75;4.70;;;17.30;99.90;;;;;;5014838;28;20052;-68
2022/06/26 04:35:17;;;;;;;8.43;5.50;;;17.30;99.90;;;;;;5021101;28;20038;-70
2022/06/26 04:37:43;;;;;;;8.80;5.00;;;17.30;99.90;;;;;;5013650;28;20377;-68
2022/06/26 04:40:11;;;;;;;9.60;5.40;;;17.30;99.90;;;;;;5013517;28;20550;-68
2022/06/26 04:42:38;;;;;;;6.65;5.13;;;17.30;99.90;;;;;;5014291;28;20046;-68
2022/06/26 04:45:04;;;;;;;6.97;4.72;;;17.30;99.90;;;;;;5015216;28;20030;-69
2022/06/26 04:47:30;;;;;;;7.75;4.97;;;17.30;99.90;;;;;;5013739;28;20125;-68
2022/06/26 04:49:56;;;;;;;7.78;5.53;;;17.30;99.90;;;;;;5013164;28;20048;-69
2022/06/26 04:52:25;;;;;;;7.53;5.50;;;17.40;99.90;;;;;;5029278;28;20052;-69
2022/06/26 04:54:50;;;;;;;13.43;5.47;;;17.40;99.90;;;;;;5030330;28;20042;-69
2022/06/26 04:57:16;;;;;;;7.88;5.78;;;17.40;99.90;;;;;;5013105;28;20507;-68
2022/06/26 04:59:43;;;;;;;7.80;5.45;;;17.40;99.90;;;;;;5013513;28;20053;-68
2022/06/26 05:02:10;;;;;;;9.25;5.63;;;17.50;99.90;;;;;;5013659;28;20054;-68
2022/06/26 05:04:36;;;;;;;10.90;5.60;;;17.50;99.90;;;;;;5012305;28;20105;-68
2022/06/26 05:07:02;;;;;;;7.18;5.10;;;17.50;99.90;;;;;;5014425;28;20077;-68
2022/06/26 05:09:29;;;;;;;9.38;5.65;;;17.50;99.90;;;;;;5029964;28;20042;-69
2022/06/26 05:11:54;;;;;;;7.88;6.35;;;17.50;99.90;;;;;;5021739;28;20492;-68
2022/06/26 05:14:20;;;;;;;8.82;5.75;;;17.60;99.90;;;;;;5012646;28;20049;-68
2022/06/26 05:16:46;;;;;;;9.23;5.57;;;17.60;99.90;;;;;;5012202;28;20045;-68
2022/06/26 05:19:12;;;;;;;6.72;5.60;;;17.50;99.90;;;;;;5026101;28;20054;-68
2022/06/26 05:21:37;;;;;;;7.70;6.10;;;17.60;99.90;;;;;;5010158;28;20047;-68
2022/06/26 05:24:04;;;;;;;9.73;5.75;;;17.70;99.90;;;;;;5004974;28;20197;-68
2022/06/26 05:26:29;;;;;;;7.88;5.13;;;17.70;99.90;;;;;;5014993;28;20477;-68
2022/06/26 05:28:55;;;;;;;8.50;5.78;;;17.70;99.90;;;;;;5013837;28;20044;-69
2022/06/26 05:31:21;;;;;;;9.90;5.38;;;17.80;99.90;;;;;;5012557;28;20073;-69
2022/06/26 05:33:48;;;;;;;8.38;5.93;;;17.80;99.90;;;;;;5013715;28;20049;-68
2022/06/26 05:36:14;;;;;;;7.43;5.70;;;17.80;99.90;;;;;;5014717;28;20038;-68
2022/06/26 05:38:41;;;;;;;7.15;5.90;;;17.90;99.90;;;;;;5011505;28;20049;-68
2022/06/26 05:41:07;;;;;;;11.68;5.88;;;17.90;99.90;;;;;;5013172;28;20034;-69
2022/06/26 05:43:33;;;;;;;11.40;6.60;;;17.90;99.90;;;;;;5012902;28;20120;-68
2022/06/26 05:45:59;;;;;;;9.27;6.15;;;17.90;99.90;;;;;;5011929;28;20500;-66
2022/06/26 05:48:26;;;;;;;8.38;6.05;;;17.90;99.90;;;;;;5012563;28;20100;-67
2022/06/26 05:50:52;;;;;;;10.63;6.00;;;17.90;99.90;;;;;;5011714;28;20034;-67
2022/06/26 05:53:19;;;;;;;9.32;6.15;;;17.90;99.90;;;;;;5014000;28;20045;-67
2022/06/26 05:55:45;;;;;;;7.60;6.82;;;17.90;99.90;;;;;;5027496;28;20038;-68
2022/06/26 05:58:11;;;;;;;11.50;7.47;;;17.90;99.90;;;;;;5012647;28;20053;-67
2022/06/26 06:00:38;;;;;;;10.38;7.47;;;18.00;99.90;;;;;;5012134;28;20041;-68
2022/06/26 06:03:05;;;;;;;10.83;7.20;;;18.00;99.90;;;;;;5011932;28;20568;-68
2022/06/26 06:05:31;;;;;;;11.90;8.20;;;18.00;99.90;;;;;;5012189;28;20053;-67
2022/06/26 06:07:57;;;;;;;11.23;8.23;;;18.00;99.90;;;;;;5012241;28;20046;-68
2022/06/26 06:10:24;;;;;;;12.02;8.60;;;18.00;99.90;;;;;;5013377;28;20496;-67
2022/06/26 06:12:51;;;;;;;10.98;9.00;;;18.00;99.90;;;;;;4994651;28;20068;-68
2022/06/26 06:15:18;;;;;;;13.02;10.18;;;18.00;99.90;;;;;;5011511;28;20068;-67
2022/06/26 06:17:44;;;;;;;10.93;8.90;;;18.00;99.90;;;;;;5027888;28;20116;-68
2022/06/26 06:20:15;;;;;;;15.50;9.65;;;18.00;99.90;;;;;;5009886;28;20078;-67
2022/06/26 06:22:48;;;;;;;13.73;10.18;;;18.00;99.90;;;;;;5016467;28;20048;-67
2022/06/26 06:25:14;;;;;;;14.93;9.38;;;18.10;99.90;;;;;;5012350;28;20056;-68
2022/06/26 06:27:40;;;;;;;12.88;9.57;;;18.10;99.90;;;;;;5013135;28;20034;-68
2022/06/26 06:30:08;;;;;;;12.20;10.20;;;18.10;99.90;;;;;;5012211;28;20088;-66
2022/06/26 06:32:35;;;;;;;18.20;11.88;;;18.20;99.90;;;;;;5013061;28;20050;-68
2022/06/26 06:35:00;;;;;;;17.20;12.02;;;18.20;99.90;;;;;;5012511;28;20136;-67
2022/06/26 06:37:26;;;;;;;17.73;12.18;;;18.20;99.90;;;;;;5013227;28;20066;-67
2022/06/26 06:39:52;;;;;;;13.18;11.77;;;18.20;99.90;;;;;;5010883;28;20042;-67
2022/06/26 06:42:18;;;;;;;20.17;13.25;;;18.30;99.90;;;;;;5011681;28;20397;-68
2022/06/26 06:44:44;;;;;;;16.35;13.73;;;18.40;99.90;;;;;;5011882;28;20042;-67
2022/06/26 06:47:11;;;;;;;17.23;13.93;;;18.40;99.90;;;;;;5012409;28;20034;-68
2022/06/26 06:49:38;;;;;;;18.42;14.38;;;18.50;99.90;;;;;;5012672;28;20125;-67
2022/06/26 06:52:04;;;;;;;16.55;14.20;;;18.60;99.90;;;;;;5011161;28;20053;-67
2022/06/26 06:54:30;;;;;;;19.95;14.48;;;18.70;99.90;;;;;;5012483;28;20488;-67
2022/06/26 06:56:55;;;;;;;16.77;14.60;;;18.80;99.90;;;;;;5009950;28;20061;-67
2022/06/26 06:59:21;;;;;;;22.27;15.40;;;18.90;99.90;;;;;;5013561;28;20510;-68
2022/06/26 07:01:47;;;;;;;18.73;16.00;;;18.90;99.90;;;;;;5010739;28;20042;-67
2022/06/26 07:04:13;;;;;;;18.80;15.88;;;18.90;99.90;;;;;;5009563;28;20143;-68
2022/06/26 07:06:39;;;;;;;18.08;15.52;;;18.90;99.90;;;;;;5009980;28;20133;-68
2022/06/26 07:09:05;;;;;;;21.60;16.15;;;18.90;99.90;;;;;;5012605;28;20128;-67
2022/06/26 07:11:31;;;;;;;21.73;16.20;;;18.90;99.90;;;;;;5012094;28;20046;-69
2022/06/26 07:13:57;;;;;;;20.00;15.30;;;18.90;99.90;;;;;;5011441;28;20118;-68
2022/06/26 07:16:23;;;;;;;18.27;15.48;;;19.00;99.90;;;;;;5010003;28;20404;-67
2022/06/26 07:18:49;;;;;;;19.63;15.27;;;19.00;99.90;;;;;;5009071;28;20040;-67
2022/06/26 07:21:15;;;;;;;17.25;15.25;;;19.20;99.90;;;;;;4997875;28;20038;-66
2022/06/26 07:23:40;;;;;;;18.80;16.38;;;19.40;99.90;;;;;;5003557;28;20046;-68
2022/06/26 07:26:06;;;;;;;23.42;17.92;;;19.50;99.90;;;;;;5010853;28;20135;-68
2022/06/26 07:28:32;;;;;;;18.38;16.27;;;19.50;99.90;;;;;;5011093;28;20041;-68
2022/06/26 07:30:58;;;;;;;18.58;16.58;;;19.60;99.90;;;;;;5009809;28;20053;-67
2022/06/26 07:36:08;;;;;;;19.52;17.45;;;19.60;99.90;;;;;;5016836;28;20419;-68
2022/06/26 07:38:34;;;;;;;24.88;17.77;;;19.50;99.90;;;;;;5009801;28;20049;-68
2022/06/26 07:40:59;;;;;;;22.63;17.33;;;19.50;99.90;;;;;;5013100;28;20201;-68
2022/06/26 07:43:25;;;;;;;23.58;17.25;;;19.40;99.90;;;;;;5008532;28;20150;-67
2022/06/26 07:45:51;;;;;;;24.23;19.25;;;19.40;99.90;;;;;;5008820;28;20068;-67
2022/06/26 07:48:17;;;;;;;25.63;19.63;;;19.40;99.90;;;;;;5013429;28;20041;-67
2022/06/26 07:50:43;;;;;;;21.30;18.45;;;19.40;99.90;;;;;;5010900;28;20365;-67
2022/06/26 07:53:08;;;;;;;25.63;18.02;;;19.40;99.90;;;;;;5004565;28;20104;-68
2022/06/26 07:55:34;;;;;;;22.50;18.17;;;19.50;99.90;;;;;;5009287;28;20518;-68
2022/06/26 07:58:00;;;;;;;19.77;16.80;;;19.60;99.90;;;;;;5009435;28;20046;-68
2022/06/26 08:00:26;;;;;;;20.38;17.67;;;19.60;99.90;;;;;;5006254;28;20042;-68
2022/06/26 08:02:52;;;;;;;21.73;17.85;;;19.60;99.90;;;;;;5010503;28;20037;-67
2022/06/26 08:05:20;;;;;;;20.92;17.88;;;19.90;99.90;;;;;;5013211;28;20054;-66
2022/06/26 08:07:46;;;;;;;20.73;17.70;;;20.00;99.90;;;;;;5007397;28;20077;-66
2022/06/26 08:10:12;;;;;;;17.17;15.27;;;20.20;99.90;;;;;;5007829;28;20457;-67
2022/06/26 08:12:38;;;;;;;16.85;15.05;;;20.40;99.90;;;;;;5008773;28;20117;-65
2022/06/26 08:15:04;;;;;;;18.70;14.52;;;20.40;99.90;;;;;;5007055;28;20111;-67
2022/06/26 08:17:31;;;;;;;20.90;14.07;;;20.40;99.90;;;;;;5007663;28;20154;-68
2022/06/26 08:19:56;;;;;;;14.15;11.93;;;20.40;99.90;;;;;;5005966;28;20046;-69
2022/06/26 08:22:22;;;;;;;15.43;12.32;;;20.50;99.90;;;;;;5003433;28;20053;-68
2022/06/26 08:24:48;;;;;;;11.45;10.32;;;20.50;99.90;;;;;;5020569;28;20073;-67
2022/06/26 08:27:14;;;;;;;11.65;10.15;;;20.70;99.90;;;;;;5024458;28;20037;-67
2022/06/26 08:29:40;;;;;;;12.55;9.43;;;20.80;99.90;;;;;;5008084;28;20100;-66
2022/06/26 08:32:06;;;;;;;11.95;10.32;;;20.90;99.90;;;;;;5006262;28;20042;-69
2022/06/26 08:34:32;;;;;;;14.02;11.02;;;20.80;99.90;;;;;;5006301;28;20125;-67
2022/06/26 08:36:58;;;;;;;12.57;10.68;;;20.80;99.90;;;;;;5009728;28;20120;-67
2022/06/26 08:39:24;;;;;;;11.77;10.38;;;20.80;99.90;;;;;;5003589;28;20053;-69
2022/06/26 08:41:53;;;;;;;12.98;10.02;;;20.70;99.90;;;;;;5005070;28;20042;-67
2022/06/26 08:44:18;;;;;;;13.73;9.85;;;20.60;99.90;;;;;;5007319;28;20038;-68
2022/06/26 08:46:45;;;;;;;11.75;9.80;;;20.40;99.90;;;;;;5012592;28;20053;-68
2022/06/26 08:49:17;;;;;;;16.00;10.65;;;20.30;99.90;;;;;;5012728;28;20052;-68
2022/06/26 08:51:46;;;;;;;14.70;9.50;;;20.30;99.90;;;;;;5007624;28;20048;-68
2022/06/26 08:54:13;;;;;;;8.77;7.10;;;20.30;99.90;;;;;;5012337;28;20041;-68
2022/06/26 08:56:42;;;;;;;9.82;6.82;;;20.50;99.90;;;;;;5012302;28;20125;-67
2022/06/26 08:59:13;;;;;;;10.05;6.38;;;20.60;99.90;;;;;;5008470;28;20053;-68
2022/06/26 09:01:40;;;;;;;10.65;8.35;;;20.60;99.90;;;;;;5009795;28;20046;-68
2022/06/26 09:04:07;;;;;;;11.65;7.57;;;20.60;99.90;;;;;;5011046;28;20384;-69
2022/06/26 09:06:34;;;;;;;9.80;6.82;;;20.80;99.90;;;;;;5009312;28;20065;-70
2022/06/26 09:09:00;;;;;;;10.75;6.78;;;21.00;99.90;;;;;;5007592;28;20583;-70
2022/06/26 09:11:26;;;;;;;10.85;7.13;;;21.30;99.90;;;;;;5009500;28;20045;-67
2022/06/26 09:13:53;;;;;;;9.25;7.32;;;21.60;99.90;;;;;;5006736;28;20038;-68
2022/06/26 09:16:30;;;;;;;9.00;6.65;;;21.80;99.90;;;;;;5011172;28;20397;-68
2022/06/26 09:19:06;;;;;;;9.40;6.90;;;22.00;99.90;;;;;;5002548;28;20038;-69
2022/06/26 09:21:32;;;;;;;9.00;6.40;;;22.00;99.90;;;;;;5010076;28;20517;-69
2022/06/26 09:23:57;;;;;;;10.30;6.00;;;21.90;99.90;;;;;;4997655;28;20069;-68
2022/06/26 09:26:23;;;;;;;7.60;4.85;;;21.80;99.90;;;;;;5003314;28;20377;-68
2022/06/26 09:28:49;;;;;;;6.43;4.45;;;21.70;99.90;;;;;;5014703;28;20420;-69
2022/06/26 09:31:20;;;;;;;7.57;4.45;;;21.60;99.90;;;;;;5013854;28;20420;-68
2022/06/26 09:33:46;;;;;;;5.93;3.83;;;21.40;99.90;;;;;;5020491;28;20091;-69
2022/06/26 09:36:17;;;;;;;6.28;4.32;;;21.50;99.90;;;;;;5017393;28;20038;-69
2022/06/26 09:38:51;;;;;;;6.32;4.18;;;21.40;99.90;;;;;;5026433;28;20049;-69
2022/06/26 09:41:32;;;;;;;6.70;4.85;;;21.30;99.90;;;;;;5014407;28;20125;-68
2022/06/26 09:43:58;;;;;;;6.35;4.78;;;21.40;99.90;;;;;;5014335;28;20069;-69
2022/06/26 09:46:31;;;;;;;5.82;3.35;;;21.50;99.90;;;;;;5012915;28;20045;-69
2022/06/26 09:49:00;;;;;;;6.18;3.42;;;21.40;99.90;;;;;;5010699;28;20045;-69
2022/06/26 09:51:26;;;;;;;6.22;3.60;;;21.30;99.90;;;;;;5013256;28;20172;-68
2022/06/26 09:53:53;;;;;;;4.88;2.58;;;21.30;99.90;;;;;;5012169;28;20054;-68
2022/06/26 09:56:19;;;;;;;5.57;3.22;;;21.40;99.90;;;;;;4995292;28;20121;-68
2022/06/26 09:58:45;;;;;;;5.75;3.10;;;21.70;99.90;;;;;;5013769;28;20116;-68
2022/06/26 10:06:43;;;;;;;4.97;3.10;;;22.30;99.90;;;;;;5010224;28;20057;-68
2022/06/26 10:09:09;;;;;;;5.50;3.60;;;22.60;99.90;;;;;;5013199;28;20054;-68
2022/06/26 10:11:37;;;;;;;5.38;2.90;;;22.80;99.90;;;;;;5016326;28;20479;-68
2022/06/26 10:14:06;;;;;;;4.68;2.90;;;22.90;99.90;;;;;;4994262;28;20057;-68
2022/06/26 10:16:52;;;;;;;7.35;3.63;;;23.00;99.90;;;;;;5009359;28;20058;-68
2022/06/26 10:19:31;;;;;;;5.07;2.95;;;23.10;99.90;;;;;;5020658;28;20140;-68
2022/06/26 10:21:57;;;;;;;6.05;2.67;;;23.20;99.90;;;;;;5010488;28;21301;-68
2022/06/26 10:24:23;;;;;;;5.22;2.55;;;23.40;99.90;;;;;;5005375;28;20056;-68
2022/06/26 10:26:59;;;;;;;6.57;2.72;;;23.60;99.90;;;;;;5007923;28;20049;-69
2022/06/26 10:29:36;;;;;;;3.72;2.30;;;23.70;99.90;;;;;;5019517;28;20433;-69
2022/06/26 10:32:02;;;;;;;5.43;2.70;;;23.90;99.90;;;;;;5008414;28;20137;-68
2022/06/26 10:34:29;;;;;;;4.45;2.58;;;24.00;99.90;;;;;;5020135;28;20508;-69
2022/06/26 10:37:00;;;;;;;6.40;3.17;;;24.00;99.90;;;;;;5010123;28;20133;-68
2022/06/26 10:39:38;;;;;;;6.13;3.47;;;23.80;99.90;;;;;;4997100;28;20056;-68
2022/06/26 10:45:00;;;;;;;4.95;2.78;;;23.50;99.90;;;;;;5004757;28;20140;-68
2022/06/26 10:47:46;;;;;;;5.28;2.72;;;23.40;99.90;;;;;;5009762;28;20145;-68
2022/06/26 10:50:22;;;;;;;3.95;2.33;;;23.40;99.90;;;;;;5009062;28;20049;-67
2022/06/26 10:52:48;;;;;;;5.40;2.00;;;23.40;99.90;;;;;;5009795;28;20129;-68
2022/06/26 10:55:13;;;;;;;4.38;2.08;;;23.40;99.90;;;;;;5008344;28;20145;-68
2022/06/26 10:57:39;;;;;;;6.22;2.45;;;23.30;99.90;;;;;;5006233;28;20045;-68
2022/06/26 11:00:12;;;;;;;5.95;2.25;;;23.30;99.90;;;;;;5000096;28;20072;-68
2022/06/26 11:02:41;;;;;;;7.97;2.38;;;23.40;99.90;;;;;;5008568;28;20081;-67
2022/06/26 11:05:08;;;;;;;4.25;2.30;;;23.40;99.90;;;;;;5007420;28;20451;-67
2022/06/26 11:07:45;;;;;;;4.53;2.55;;;23.40;99.90;;;;;;5009599;28;20050;-67
2022/06/26 11:10:19;;;;;;;3.78;2.45;;;23.30;99.90;;;;;;5009076;28;20038;-68
2022/06/26 11:12:50;;;;;;;3.42;2.08;;;23.30;99.90;;;;;;5021691;28;20050;-68
2022/06/26 11:15:32;;;;;;;5.63;2.58;;;23.30;99.90;;;;;;5008610;28;20505;-67
2022/06/26 11:18:05;;;;;;;5.53;2.63;;;23.20;99.90;;;;;;5001858;28;20049;-68
2022/06/26 11:20:49;;;;;;;7.07;2.58;;;23.10;99.90;;;;;;5008864;28;20045;-68
2022/06/26 11:23:30;;;;;;;7.35;2.38;;;23.10;99.90;;;;;;5008253;28;20413;-68
2022/06/26 11:25:58;;;;;;;5.13;2.60;;;23.10;99.90;;;;;;5009660;28;20093;-68
2022/06/26 11:28:40;;;;;;;7.10;2.28;;;23.30;99.90;;;;;;5007893;28;20042;-67
2022/06/26 11:31:08;;;;;;;5.43;2.70;;;23.60;99.90;;;;;;5008891;28;20040;-67
2022/06/26 11:33:36;;;;;;;3.97;2.35;;;23.80;99.90;;;;;;5010628;28;20407;-68
2022/06/26 11:36:11;;;;;;;9.50;3.33;;;23.90;99.90;;;;;;5013281;28;20463;-67
2022/06/26 11:38:38;;;;;;;6.90;2.95;;;24.00;99.90;;;;;;5009804;28;20117;-68
2022/06/26 11:41:05;;;;;;;6.90;3.22;;;24.00;99.90;;;;;;5011017;28;20038;-68
2022/06/26 11:43:31;;;;;;;5.20;2.70;;;24.00;99.90;;;;;;5025124;28;20053;-68
2022/06/26 11:45:59;;;;;;;3.97;2.30;;;23.80;99.90;;;;;;5007975;28;20049;-68
2022/06/26 11:48:25;;;;;;;6.47;2.25;;;23.70;99.90;;;;;;5009053;28;20038;-67
2022/06/26 11:50:55;;;;;;;6.10;2.30;;;23.70;99.90;;;;;;5010275;28;20129;-68
2022/06/26 11:53:26;;;;;;;4.68;2.47;;;23.60;99.90;;;;;;5006093;28;20408;-68
2022/06/26 11:55:55;;;;;;;3.85;2.30;;;23.60;99.90;;;;;;4998442;28;20476;-69
2022/06/26 11:58:28;;;;;;;7.93;2.60;;;23.70;99.90;;;;;;5006294;28;20133;-67
2022/06/26 12:01:10;;;;;;;5.10;2.22;;;23.80;99.90;;;;;;5008320;28;20038;-68
2022/06/26 12:03:51;;;;;;;6.00;2.30;;;23.80;99.90;;;;;;5004696;28;20056;-68
2022/06/26 12:06:36;;;;;;;3.42;2.10;;;23.90;99.90;;;;;;5006602;28;20049;-68
2022/06/26 12:09:19;;;;;;;7.43;2.10;;;23.90;99.90;;;;;;5007595;28;20144;-68
2022/06/26 12:11:46;;;;;;;3.53;2.10;;;23.80;99.90;;;;;;5007243;28;20049;-68
2022/06/26 12:14:15;;;;;;;8.85;2.35;;;23.80;99.90;;;;;;5022251;28;20650;-68
2022/06/26 12:16:56;;;;;;;7.10;1.95;;;23.70;99.90;;;;;;5006832;28;20057;-68
2022/06/26 12:19:23;;;;;;;6.28;2.05;;;23.70;99.90;;;;;;5010187;28;20050;-67
2022/06/26 12:21:51;;;;;;;23.35;2.30;;;23.70;99.90;;;;;;5011100;28;20399;-67
2022/06/26 12:24:18;;;;;;;15.18;2.20;;;23.60;99.90;;;;;;5013790;28;20038;-67
2022/06/26 12:26:45;;;;;;;5.05;2.20;;;23.70;99.90;;;;;;5013974;28;20081;-67
2022/06/26 12:29:13;;;;;;;4.72;2.33;;;23.70;99.90;;;;;;5014687;28;20096;-68
2022/06/26 12:31:39;;;;;;;5.90;2.40;;;23.70;99.90;;;;;;5014390;28;20046;-67
2022/06/26 12:34:05;;;;;;;4.75;2.33;;;23.80;99.90;;;;;;5013913;28;20101;-67
2022/06/26 12:36:34;;;;;;;6.72;2.35;;;24.00;99.90;;;;;;5017688;28;20045;-66
2022/06/26 12:39:01;;;;;;;5.60;2.40;;;24.20;99.90;;;;;;5015282;28;20453;-67
2022/06/26 12:41:27;;;;;;;7.22;2.15;;;24.40;99.90;;;;;;5014107;28;20488;-68
2022/06/26 12:43:56;;;;;;;6.00;2.22;;;24.50;99.90;;;;;;5011747;28;20049;-67
2022/06/26 12:46:23;;;;;;;7.18;2.33;;;24.60;99.90;;;;;;5027494;28;20092;-68
2022/06/26 12:48:50;;;;;;;5.20;2.42;;;24.60;99.40;;;;;;5021341;28;20042;-68
2022/06/26 12:51:17;;;;;;;5.78;2.08;;;24.60;99.50;;;;;;5007947;28;20034;-68
2022/06/26 12:53:43;;;;;;;4.32;2.10;;;24.50;99.50;;;;;;5009150;28;20064;-68